VNKT/KTM METAR and TAF weather

Enter ICAO airport designator
Station Type Date Time Source
VNKT METAR 2021/09/28 05:20 UTC NOAA

VNKT 280520Z 33004KT 8000 FEW015 SCT030 BKN100 25/20 Q1019 NOSIG


Station Type Date Time Source
VNKT Decoded METAR 2021/09/28 05:20 UTC NOAA

Kathmandu Airport, Nepal (VNKT) 27-42N 085-22E 1337M
Sep 28, 2021 - 01:20 AM EDT / 2021.09.28 0520 UTC
Wind: from the NNW (330 degrees) at 5 MPH (4 KT):0
Visibility: 4 mile(s):0
Sky conditions: mostly cloudy
Temperature: 77 F (25 C)
Dew Point: 68 F (20 C)
Relative Humidity: 73%
Pressure (altimeter): 30.09 in. Hg (1019 hPa)
ob: VNKT 280520Z 33004KT 8000 FEW015 SCT030 BKN100 25/20 Q1019 NOSIG
cycle: 5

Station Type Date Time Source
VNKT TAF 2021/09/27 18:42 UTC NOAA

TAF TAF VNKT 271700Z 2718/2818 15003KT 6000 -RA FEW010 SCT030 BKN100
BECMG 2800/2802 VRB02KT 5000 BR FEW010 SCT030 BKN100
BECMG 2803/2804 08003KT 7000 FEW015 SCT030
BECMG 2807/2808 27008KT 8000 FEW020 SCT030 PROB40 2807/2812 VRB12KT 5000 -TSRA FEW025CB SCT030 BKN100
BECMG 2813/2814 18003KT 7000 FEW010 SCT030 BKN100

Example: see airport list